Time;durP1;ratioP1;P1;durP2;ratioP2;P2;SDS_P1;SDS_P2;PMS_P1;PMS_P2;Temp;Humidity;BMP_temperature;BMP_pressure;BME280_temperature;BME280_humidity;BME280_pressure;Samples;Min_cycle;Max_cycle;Signal;HPM_P1;HPM_P2
2022/03/16 00:02:22;;;;;;;0.73;0.73;;;4.80;99.90;;;;;;5026192;28;20191;-83
2022/03/16 00:04:49;;;;;;;0.70;0.17;;;4.80;99.90;;;;;;5024039;28;20216;-83
2022/03/16 00:07:16;;;;;;;0.87;0.60;;;4.80;99.90;;;;;;5021337;28;20183;-83
2022/03/16 00:09:43;;;;;;;0.90;0.90;;;4.80;99.90;;;;;;5024180;28;20224;-83
2022/03/16 00:12:09;;;;;;;0.50;0.50;;;4.60;99.90;;;;;;5025728;28;20246;-83
2022/03/16 00:14:36;;;;;;;0.20;0.20;;;4.60;99.90;;;;;;5027425;28;20221;-83
2022/03/16 00:17:02;;;;;;;0.20;0.20;;;4.60;99.90;;;;;;5024320;28;20262;-84
2022/03/16 00:19:28;;;;;;;0.40;0.40;;;4.60;99.90;;;;;;5026351;28;20182;-84
2022/03/16 00:21:53;;;;;;;0.10;0.10;;;4.60;99.90;;;;;;5021492;28;20214;-83
2022/03/16 00:24:19;;;;;;;0.77;0.20;;;4.60;99.90;;;;;;5022239;28;20201;-84
2022/03/16 00:26:44;;;;;;;0.40;0.40;;;4.60;99.90;;;;;;5025818;28;20195;-84
2022/03/16 00:29:10;;;;;;;0.40;0.40;;;4.50;99.90;;;;;;5025809;28;20205;-84
2022/03/16 00:31:35;;;;;;;1.07;0.20;;;4.40;99.90;;;;;;5024434;28;20642;-84
2022/03/16 00:34:02;;;;;;;0.33;0.33;;;4.30;99.90;;;;;;5024941;28;20186;-84
2022/03/16 00:36:28;;;;;;;0.60;0.60;;;4.20;99.90;;;;;;5023602;28;20186;-83
2022/03/16 00:38:53;;;;;;;0.20;0.20;;;4.10;99.90;;;;;;5019667;28;20186;-83
2022/03/16 00:41:19;;;;;;;3.47;1.03;;;4.10;99.90;;;;;;5018457;28;20215;-83
2022/03/16 00:43:44;;;;;;;0.23;0.23;;;4.10;99.90;;;;;;5021877;28;20187;-83
2022/03/16 00:46:10;;;;;;;0.60;0.20;;;4.10;99.90;;;;;;5025190;28;20201;-84
2022/03/16 00:48:36;;;;;;;0.23;0.23;;;4.10;99.90;;;;;;5018790;28;20284;-83
2022/03/16 00:51:01;;;;;;;0.57;0.50;;;4.20;99.90;;;;;;5026239;28;20240;-83
2022/03/16 00:53:27;;;;;;;0.30;0.30;;;4.20;99.90;;;;;;5021155;28;20293;-84
2022/03/16 00:55:52;;;;;;;0.63;0.63;;;4.40;99.90;;;;;;5022973;28;20194;-84
2022/03/16 00:58:19;;;;;;;0.20;0.20;;;4.50;99.90;;;;;;5018830;28;20186;-83
2022/03/16 01:00:45;;;;;;;0.30;0.20;;;4.50;99.90;;;;;;5022653;28;20195;-84
2022/03/16 01:03:11;;;;;;;0.17;0.17;;;4.60;99.90;;;;;;5021215;28;20217;-84
2022/03/16 01:05:37;;;;;;;1.27;0.30;;;4.60;99.90;;;;;;5022636;28;20259;-83
2022/03/16 01:08:03;;;;;;;0.20;0.20;;;4.60;99.90;;;;;;5024207;28;20198;-83
2022/03/16 01:10:28;;;;;;;0.33;0.33;;;4.70;99.90;;;;;;5023893;28;20256;-83
2022/03/16 01:12:55;;;;;;;0.50;0.50;;;4.70;99.90;;;;;;5025045;28;20237;-81
2022/03/16 01:15:23;;;;;;;0.33;0.33;;;4.80;99.90;;;;;;5021960;28;20312;-85
2022/03/16 01:17:50;;;;;;;0.13;0.13;;;4.90;99.90;;;;;;5022222;28;20273;-84
2022/03/16 01:20:16;;;;;;;0.10;0.10;;;4.90;99.90;;;;;;5025062;28;20187;-83
2022/03/16 01:22:41;;;;;;;0.20;0.20;;;5.00;99.90;;;;;;5025480;28;20769;-83
2022/03/16 01:25:07;;;;;;;0.53;0.30;;;4.90;99.90;;;;;;5019762;28;20202;-83
2022/03/16 01:27:33;;;;;;;0.37;0.37;;;4.90;99.90;;;;;;5024320;28;20204;-83
2022/03/16 01:29:58;;;;;;;0.30;0.30;;;4.90;99.90;;;;;;5022980;28;20217;-84
2022/03/16 01:32:24;;;;;;;0.43;0.43;;;4.80;99.90;;;;;;5024922;28;20294;-84
2022/03/16 01:34:49;;;;;;;2.67;0.47;;;4.80;99.90;;;;;;5023633;28;20324;-83
2022/03/16 01:37:15;;;;;;;0.40;0.40;;;4.80;99.90;;;;;;5017621;28;20281;-83
2022/03/16 01:39:40;;;;;;;0.73;0.73;;;4.70;99.90;;;;;;5018670;28;20592;-83
2022/03/16 01:42:06;;;;;;;1.60;0.63;;;4.70;99.90;;;;;;5022337;28;20214;-84
2022/03/16 01:44:49;;;;;;;0.50;0.50;;;4.70;99.90;;;;;;5020139;28;20198;-83
2022/03/16 01:47:17;;;;;;;0.20;0.20;;;4.80;99.90;;;;;;5024295;28;20215;-84
2022/03/16 01:49:43;;;;;;;0.63;0.63;;;4.80;99.90;;;;;;5023928;28;20284;-83
2022/03/16 01:52:10;;;;;;;0.20;0.20;;;4.80;99.90;;;;;;5022056;28;20253;-84
2022/03/16 01:54:38;;;;;;;0.20;0.20;;;4.70;99.90;;;;;;5022402;28;20534;-84
2022/03/16 01:57:04;;;;;;;1.27;0.77;;;4.70;99.90;;;;;;5021985;28;20201;-84
2022/03/16 01:59:31;;;;;;;0.10;0.10;;;4.70;99.90;;;;;;5022228;28;20212;-84
2022/03/16 02:01:57;;;;;;;0.40;0.27;;;4.70;99.90;;;;;;5022258;28;20671;-84
2022/03/16 02:04:22;;;;;;;0.40;0.40;;;4.70;99.90;;;;;;5021049;28;20220;-85
2022/03/16 02:06:48;;;;;;;0.30;0.30;;;4.50;99.90;;;;;;5024846;28;20228;-85
2022/03/16 02:09:14;;;;;;;0.70;0.20;;;4.50;99.90;;;;;;5027612;28;20202;-84
2022/03/16 02:11:40;;;;;;;0.50;0.50;;;4.40;99.90;;;;;;5024450;28;20217;-84
2022/03/16 02:14:06;;;;;;;0.47;0.47;;;4.40;99.90;;;;;;5026879;28;20657;-84
2022/03/16 02:16:35;;;;;;;0.27;0.27;;;4.20;99.90;;;;;;5026814;28;20190;-84
2022/03/16 02:19:01;;;;;;;0.33;0.33;;;4.10;99.90;;;;;;5027928;28;20196;-85
2022/03/16 02:21:31;;;;;;;0.20;0.20;;;4.00;99.90;;;;;;5026109;28;20218;-84
2022/03/16 02:23:57;;;;;;;0.23;0.23;;;3.90;99.90;;;;;;5025692;28;20178;-84
2022/03/16 02:26:26;;;;;;;0.47;0.20;;;3.80;99.90;;;;;;5026990;28;20193;-85
2022/03/16 02:28:52;;;;;;;0.30;0.23;;;4.00;99.90;;;;;;5027892;28;20680;-84
2022/03/16 02:31:18;;;;;;;0.30;0.30;;;4.20;99.90;;;;;;5025720;28;20245;-85
2022/03/16 02:33:44;;;;;;;1.00;0.93;;;4.10;99.90;;;;;;5027769;28;20271;-84
2022/03/16 02:36:09;;;;;;;0.93;0.53;;;4.20;99.90;;;;;;5024698;28;20671;-85
2022/03/16 02:38:36;;;;;;;2.27;0.33;;;4.30;99.90;;;;;;5023026;28;20179;-84
2022/03/16 02:41:02;;;;;;;0.30;0.30;;;4.30;99.90;;;;;;5026150;28;20186;-85
2022/03/16 02:43:27;;;;;;;0.50;0.50;;;4.20;99.90;;;;;;5027782;28;21262;-84
2022/03/16 02:45:54;;;;;;;0.37;0.37;;;4.10;99.90;;;;;;5027431;28;20182;-84
2022/03/16 02:48:20;;;;;;;0.30;0.27;;;4.00;99.90;;;;;;5027188;28;20193;-84
2022/03/16 02:50:46;;;;;;;0.30;0.30;;;4.00;99.90;;;;;;5028991;28;20723;-84
2022/03/16 02:53:12;;;;;;;0.30;0.30;;;4.00;99.90;;;;;;5024022;28;20203;-84
2022/03/16 02:55:37;;;;;;;1.10;0.60;;;4.00;99.90;;;;;;5023962;28;20551;-84
2022/03/16 02:58:03;;;;;;;0.67;0.67;;;4.00;99.90;;;;;;5027351;28;20243;-84
2022/03/16 03:00:29;;;;;;;1.03;0.77;;;4.10;99.90;;;;;;5027395;28;20591;-84
2022/03/16 03:02:54;;;;;;;2.20;0.80;;;4.10;99.90;;;;;;5025933;28;20220;-85
2022/03/16 03:05:21;;;;;;;0.43;0.43;;;4.20;99.90;;;;;;5025515;28;21139;-85
2022/03/16 03:07:47;;;;;;;0.60;0.60;;;4.20;99.90;;;;;;5027271;28;20186;-84
2022/03/16 03:10:13;;;;;;;2.87;1.17;;;4.50;99.90;;;;;;5026849;28;20250;-84
2022/03/16 03:12:38;;;;;;;0.37;0.37;;;4.70;99.90;;;;;;5025782;28;20255;-84
2022/03/16 03:15:05;;;;;;;2.53;1.57;;;5.00;99.90;;;;;;5020367;28;20216;-84
2022/03/16 03:17:31;;;;;;;0.33;0.33;;;5.00;99.90;;;;;;5027028;28;20652;-83
2022/03/16 03:19:57;;;;;;;0.40;0.30;;;5.20;99.90;;;;;;5027814;28;20190;-84
2022/03/16 03:22:27;;;;;;;7.20;0.90;;;5.20;99.90;;;;;;5027601;28;20766;-84
2022/03/16 03:24:54;;;;;;;2.13;0.83;;;4.90;99.90;;;;;;5022345;28;20236;-85
2022/03/16 03:27:19;;;;;;;0.60;0.60;;;4.80;99.90;;;;;;5021730;28;20240;-84
2022/03/16 03:29:45;;;;;;;1.13;0.57;;;4.90;99.90;;;;;;5024326;28;20175;-84
2022/03/16 03:32:10;;;;;;;0.63;0.63;;;5.00;99.90;;;;;;5022364;28;20229;-84
2022/03/16 03:34:36;;;;;;;2.43;0.90;;;5.00;99.90;;;;;;5022626;28;20185;-84
2022/03/16 03:37:01;;;;;;;0.33;0.30;;;5.00;99.90;;;;;;5024938;28;20563;-85
2022/03/16 03:39:27;;;;;;;3.07;1.63;;;5.20;99.90;;;;;;5026344;28;20201;-85
2022/03/16 03:41:52;;;;;;;0.23;0.23;;;5.10;99.90;;;;;;5023406;28;20579;-84
2022/03/16 03:44:18;;;;;;;0.93;0.73;;;5.00;99.90;;;;;;5021401;28;20682;-85
2022/03/16 03:46:43;;;;;;;0.27;0.27;;;5.00;99.90;;;;;;5024522;28;20189;-84
2022/03/16 03:49:09;;;;;;;2.07;0.77;;;4.70;99.90;;;;;;5026160;28;20786;-84
2022/03/16 03:51:36;;;;;;;2.07;1.13;;;4.90;99.90;;;;;;5026463;28;20715;-85
2022/03/16 03:54:01;;;;;;;0.53;0.53;;;5.00;99.90;;;;;;5026921;28;20190;-84
2022/03/16 03:56:27;;;;;;;2.00;0.40;;;5.20;99.90;;;;;;5024192;28;20245;-84
2022/03/16 03:58:52;;;;;;;0.63;0.63;;;5.00;99.90;;;;;;5024699;28;20190;-85
2022/03/16 04:01:18;;;;;;;2.03;1.20;;;4.70;99.90;;;;;;5024012;28;20281;-85
2022/03/16 04:03:43;;;;;;;0.70;0.70;;;4.50;99.90;;;;;;5021494;28;20184;-84
2022/03/16 04:06:10;;;;;;;2.23;0.43;;;4.60;99.90;;;;;;5023446;28;20202;-84
2022/03/16 04:08:36;;;;;;;0.80;0.80;;;4.80;99.90;;;;;;5024356;28;20198;-85
2022/03/16 04:11:01;;;;;;;0.53;0.53;;;5.00;99.90;;;;;;5025398;28;20579;-84
2022/03/16 04:13:27;;;;;;;0.27;0.27;;;5.30;99.90;;;;;;5023399;28;20301;-84
2022/03/16 04:15:52;;;;;;;0.20;0.20;;;5.40;99.90;;;;;;5023012;28;20586;-85
2022/03/16 04:18:18;;;;;;;1.03;0.90;;;5.50;99.90;;;;;;5023303;28;20268;-84
2022/03/16 04:20:43;;;;;;;1.27;0.67;;;5.40;99.90;;;;;;5026802;28;20708;-84
2022/03/16 04:23:09;;;;;;;0.70;0.70;;;5.40;99.90;;;;;;5026258;28;20217;-85
2022/03/16 04:25:34;;;;;;;0.93;0.43;;;5.00;99.90;;;;;;5024285;28;20194;-85
2022/03/16 04:28:00;;;;;;;0.63;0.63;;;5.20;99.90;;;;;;5022564;28;20563;-84
2022/03/16 04:30:26;;;;;;;0.83;0.83;;;5.40;99.90;;;;;;5025016;28;20218;-85
2022/03/16 04:32:52;;;;;;;1.17;0.90;;;5.20;99.90;;;;;;5026395;28;20293;-85
2022/03/16 04:35:20;;;;;;;5.10;0.63;;;5.40;99.90;;;;;;5023906;28;20190;-84
2022/03/16 04:37:48;;;;;;;0.73;0.73;;;5.50;99.90;;;;;;5025133;28;20206;-84
2022/03/16 04:40:14;;;;;;;0.67;0.67;;;5.70;99.90;;;;;;5023293;28;20239;-84
2022/03/16 04:42:40;;;;;;;0.60;0.60;;;5.50;99.90;;;;;;5023200;28;20202;-85
2022/03/16 04:45:06;;;;;;;0.57;0.47;;;5.50;99.90;;;;;;5024099;28;20567;-85
2022/03/16 04:47:31;;;;;;;1.33;1.23;;;5.60;99.90;;;;;;5026009;28;20179;-84
2022/03/16 04:49:57;;;;;;;0.93;0.33;;;5.60;99.90;;;;;;5022472;28;20554;-84
2022/03/16 04:52:25;;;;;;;2.83;1.33;;;5.50;99.90;;;;;;5025246;28;21169;-84
2022/03/16 04:54:51;;;;;;;1.43;1.17;;;5.20;99.90;;;;;;5025195;28;20190;-84
2022/03/16 04:57:16;;;;;;;1.00;0.93;;;4.80;99.90;;;;;;5024903;28;20242;-84
2022/03/16 04:59:42;;;;;;;0.70;0.70;;;4.70;99.90;;;;;;5024091;28;20194;-85
2022/03/16 05:02:07;;;;;;;1.43;1.33;;;4.30;99.90;;;;;;5022196;28;20223;-84
2022/03/16 05:04:33;;;;;;;0.50;0.50;;;4.20;99.90;;;;;;5025782;28;20251;-84
2022/03/16 05:06:58;;;;;;;0.43;0.43;;;4.20;99.90;;;;;;5024563;28;20186;-84
2022/03/16 05:09:24;;;;;;;1.57;1.47;;;4.30;99.90;;;;;;5024764;28;20190;-84
2022/03/16 05:11:49;;;;;;;0.57;0.57;;;4.30;99.90;;;;;;5025517;28;20612;-84
2022/03/16 05:14:15;;;;;;;0.63;0.63;;;4.20;99.90;;;;;;5024978;28;20668;-84
2022/03/16 05:16:40;;;;;;;0.93;0.93;;;4.20;99.90;;;;;;5025008;28;20735;-84
2022/03/16 05:19:06;;;;;;;0.77;0.77;;;4.30;99.90;;;;;;5016861;28;20183;-85
2022/03/16 05:21:32;;;;;;;0.70;0.70;;;4.20;99.90;;;;;;5023599;28;20275;-84
2022/03/16 05:23:58;;;;;;;0.53;0.53;;;4.40;99.90;;;;;;5024360;28;20201;-85
2022/03/16 05:26:23;;;;;;;2.87;0.40;;;4.60;99.90;;;;;;5020076;28;20193;-84
2022/03/16 05:28:49;;;;;;;0.27;0.27;;;4.60;99.90;;;;;;5024761;28;20209;-84
2022/03/16 05:31:14;;;;;;;1.37;0.60;;;4.60;99.90;;;;;;5025022;28;20218;-85
2022/03/16 05:33:40;;;;;;;0.67;0.67;;;4.60;99.90;;;;;;5020419;28;20343;-84
2022/03/16 05:36:05;;;;;;;0.87;0.43;;;4.40;99.90;;;;;;5021111;28;20189;-84
2022/03/16 05:38:31;;;;;;;1.13;1.10;;;4.30;99.90;;;;;;5023551;28;20188;-85
2022/03/16 05:40:57;;;;;;;1.47;1.37;;;4.20;99.90;;;;;;5025367;28;20192;-84
2022/03/16 05:43:22;;;;;;;0.60;0.60;;;4.10;99.90;;;;;;5020213;28;20233;-84
2022/03/16 05:45:51;;;;;;;0.53;0.53;;;4.10;99.90;;;;;;5021017;28;20277;-85
2022/03/16 05:48:17;;;;;;;1.20;0.97;;;4.10;99.90;;;;;;5023495;28;20205;-84
2022/03/16 05:50:46;;;;;;;0.50;0.50;;;4.00;99.90;;;;;;5021073;28;20686;-84
2022/03/16 05:53:11;;;;;;;0.40;0.40;;;4.00;99.90;;;;;;5023797;28;20204;-84
2022/03/16 05:55:37;;;;;;;0.40;0.40;;;4.00;99.90;;;;;;5018659;28;21192;-84
2022/03/16 05:58:03;;;;;;;0.93;0.53;;;4.00;99.90;;;;;;5017299;28;20185;-85
2022/03/16 06:00:28;;;;;;;0.90;0.90;;;4.10;99.90;;;;;;5024156;28;20186;-84
2022/03/16 06:02:54;;;;;;;1.00;1.00;;;4.10;99.90;;;;;;5020473;28;20224;-84
2022/03/16 06:05:19;;;;;;;0.43;0.40;;;4.10;99.90;;;;;;5019298;28;20226;-84
2022/03/16 06:07:45;;;;;;;0.43;0.43;;;3.90;99.90;;;;;;5020117;28;20197;-85
2022/03/16 06:10:15;;;;;;;0.97;0.97;;;3.90;99.90;;;;;;5023451;28;20257;-84
2022/03/16 06:12:58;;;;;;;0.70;0.70;;;3.90;99.90;;;;;;5023906;28;20209;-84
2022/03/16 06:15:25;;;;;;;1.30;0.80;;;3.70;99.90;;;;;;5023391;28;20228;-84
2022/03/16 06:17:53;;;;;;;1.00;0.63;;;3.60;99.90;;;;;;5021495;28;20229;-82
2022/03/16 06:20:19;;;;;;;2.43;1.37;;;3.50;99.90;;;;;;5023139;28;20219;-82
2022/03/16 06:22:44;;;;;;;1.20;0.93;;;3.50;99.90;;;;;;5020626;28;20241;-82
2022/03/16 06:25:10;;;;;;;1.13;1.03;;;3.70;99.90;;;;;;5020695;28;20192;-82
2022/03/16 06:27:36;;;;;;;0.50;0.43;;;3.80;99.90;;;;;;5020602;28;20185;-82
2022/03/16 06:30:01;;;;;;;0.47;0.43;;;3.70;99.90;;;;;;5022204;28;20182;-82
2022/03/16 06:32:27;;;;;;;0.60;0.60;;;3.80;99.90;;;;;;5020906;28;20214;-82
2022/03/16 06:34:53;;;;;;;1.70;0.57;;;4.00;99.90;;;;;;5023500;28;20194;-82
2022/03/16 06:37:19;;;;;;;0.87;0.87;;;4.10;99.90;;;;;;5018094;28;20591;-82
2022/03/16 06:39:44;;;;;;;0.57;0.57;;;4.10;99.90;;;;;;5022006;28;20227;-82
2022/03/16 06:42:10;;;;;;;0.50;0.50;;;4.10;99.90;;;;;;5021877;28;20237;-82
2022/03/16 06:44:35;;;;;;;1.77;0.47;;;4.30;99.90;;;;;;5019939;28;20714;-82
2022/03/16 06:47:01;;;;;;;1.37;0.70;;;4.60;99.90;;;;;;5019093;28;20205;-82
2022/03/16 06:49:27;;;;;;;0.70;0.70;;;4.90;99.90;;;;;;5021630;28;20193;-82
2022/03/16 06:51:52;;;;;;;0.63;0.63;;;5.00;99.90;;;;;;5025126;28;20305;-82
2022/03/16 06:54:18;;;;;;;0.60;0.60;;;5.10;99.90;;;;;;5028382;28;20726;-82
2022/03/16 06:56:44;;;;;;;1.30;0.83;;;4.90;99.90;;;;;;5026254;28;20695;-83
2022/03/16 06:59:09;;;;;;;0.70;0.60;;;5.10;99.90;;;;;;5029872;28;20190;-83
2022/03/16 07:01:35;;;;;;;0.60;0.60;;;5.10;99.90;;;;;;5025331;28;20217;-82
2022/03/16 07:04:00;;;;;;;1.10;1.10;;;4.90;99.90;;;;;;5024482;28;20185;-84
2022/03/16 07:06:26;;;;;;;1.30;1.00;;;4.90;99.90;;;;;;5025344;28;20330;-84
2022/03/16 07:08:51;;;;;;;0.90;0.90;;;4.90;99.90;;;;;;5026512;28;20761;-84
2022/03/16 07:11:17;;;;;;;0.70;0.70;;;4.70;99.90;;;;;;5027720;28;20237;-84
2022/03/16 07:14:30;;;;;;;0.73;0.60;;;4.50;99.90;;;;;;5028676;28;20185;-84
2022/03/16 07:16:29;;;;;;;1.60;1.00;;;4.60;99.90;;;;;;5031745;28;20174;-85
2022/03/16 07:18:56;;;;;;;0.60;0.60;;;4.90;99.90;;;;;;5027969;28;20667;-85
2022/03/16 07:21:22;;;;;;;0.23;0.23;;;5.10;99.90;;;;;;5030273;28;20224;-84
2022/03/16 07:23:47;;;;;;;0.57;0.57;;;5.50;99.90;;;;;;5026868;28;20182;-85
2022/03/16 07:26:13;;;;;;;0.73;0.50;;;5.70;99.90;;;;;;5030748;28;20197;-84
2022/03/16 07:28:38;;;;;;;1.50;1.40;;;5.60;99.90;;;;;;5030961;28;20297;-85
2022/03/16 07:31:04;;;;;;;3.50;1.70;;;5.90;99.90;;;;;;5029266;28;20324;-84
2022/03/16 07:33:30;;;;;;;1.03;0.70;;;6.30;99.90;;;;;;5026047;28;20175;-84
2022/03/16 07:35:56;;;;;;;1.27;0.63;;;6.70;99.90;;;;;;5026865;28;20221;-84
2022/03/16 07:38:21;;;;;;;0.50;0.50;;;6.70;99.90;;;;;;5028472;28;20281;-85
2022/03/16 07:40:47;;;;;;;0.97;0.80;;;7.10;99.90;;;;;;5026329;28;20186;-85
2022/03/16 07:43:14;;;;;;;0.63;0.63;;;7.40;99.90;;;;;;5026197;28;20209;-84
2022/03/16 07:45:40;;;;;;;0.33;0.33;;;7.70;99.90;;;;;;5026872;28;20659;-84
2022/03/16 07:48:06;;;;;;;0.50;0.50;;;7.80;99.90;;;;;;5025735;28;20195;-85
2022/03/16 07:50:33;;;;;;;1.27;1.17;;;8.00;99.90;;;;;;5029592;28;20224;-84
2022/03/16 07:52:59;;;;;;;0.73;0.73;;;8.10;99.90;;;;;;5045205;28;20215;-85
2022/03/16 07:55:26;;;;;;;0.63;0.60;;;8.20;99.90;;;;;;5023957;28;20269;-85
2022/03/16 07:57:54;;;;;;;1.50;0.47;;;8.20;99.90;;;;;;5017291;28;20185;-85
2022/03/16 08:00:20;;;;;;;2.63;0.83;;;8.40;99.90;;;;;;5026430;28;20635;-82
2022/03/16 08:02:46;;;;;;;2.30;0.90;;;8.50;99.90;;;;;;5024371;28;20291;-82
2022/03/16 08:05:13;;;;;;;0.73;0.73;;;8.50;99.90;;;;;;5025641;28;20337;-82
2022/03/16 08:07:39;;;;;;;1.10;0.87;;;8.60;99.90;;;;;;5025363;28;20185;-82
2022/03/16 08:10:05;;;;;;;0.33;0.30;;;8.80;99.90;;;;;;5025246;28;20569;-82
2022/03/16 08:12:31;;;;;;;0.20;0.20;;;8.90;99.90;;;;;;5024370;28;20209;-82
2022/03/16 08:14:59;;;;;;;2.30;0.70;;;8.90;99.90;;;;;;5022400;28;20251;-82
2022/03/16 08:17:25;;;;;;;0.53;0.53;;;8.80;99.90;;;;;;5027458;28;20181;-82
2022/03/16 08:19:51;;;;;;;2.67;1.10;;;8.30;99.90;;;;;;5026626;28;20187;-82
2022/03/16 08:22:29;;;;;;;0.77;0.77;;;8.00;99.90;;;;;;5023844;28;20207;-82
2022/03/16 08:24:56;;;;;;;0.90;0.60;;;8.20;99.90;;;;;;5027311;28;20191;-82
2022/03/16 08:27:23;;;;;;;0.70;0.63;;;8.30;99.90;;;;;;5026817;28;20280;-82
2022/03/16 08:29:52;;;;;;;1.33;1.23;;;8.50;99.90;;;;;;5025988;28;20771;-82
2022/03/16 08:32:18;;;;;;;0.50;0.50;;;8.40;99.90;;;;;;5026119;28;20210;-82
2022/03/16 08:34:44;;;;;;;0.57;0.57;;;8.40;99.90;;;;;;5026383;28;20210;-82
2022/03/16 08:37:10;;;;;;;0.50;0.50;;;8.20;99.90;;;;;;5026791;28;20639;-82
2022/03/16 08:39:36;;;;;;;3.17;0.93;;;8.40;99.90;;;;;;5022691;28;20217;-81
2022/03/16 08:42:02;;;;;;;1.43;1.10;;;8.00;99.90;;;;;;5027286;28;20215;-82
2022/03/16 08:44:28;;;;;;;0.77;0.77;;;7.50;99.90;;;;;;5026880;28;20191;-82
2022/03/16 08:46:53;;;;;;;1.93;0.83;;;7.50;99.90;;;;;;5019334;28;20270;-82
2022/03/16 08:49:21;;;;;;;1.20;0.53;;;7.90;99.90;;;;;;5027111;28;20275;-82
2022/03/16 08:51:47;;;;;;;0.97;0.97;;;7.90;99.90;;;;;;5023111;28;20234;-82
2022/03/16 08:54:13;;;;;;;1.30;1.00;;;7.70;99.90;;;;;;5025334;28;20227;-83
2022/03/16 08:56:38;;;;;;;0.73;0.73;;;7.70;99.90;;;;;;5024483;28;20197;-82
2022/03/16 08:59:04;;;;;;;0.67;0.60;;;7.90;99.90;;;;;;5024402;28;20192;-81
2022/03/16 09:01:29;;;;;;;0.70;0.70;;;7.80;99.90;;;;;;5027904;28;20217;-81
2022/03/16 09:03:55;;;;;;;0.47;0.47;;;7.70;99.90;;;;;;5018136;28;20191;-82
2022/03/16 09:06:20;;;;;;;2.53;1.33;;;8.20;99.90;;;;;;5020670;28;20217;-82
2022/03/16 09:08:47;;;;;;;2.00;1.57;;;8.20;99.90;;;;;;5021603;28;20183;-82
2022/03/16 09:11:13;;;;;;;1.67;1.07;;;8.10;99.90;;;;;;5023487;28;20208;-84
2022/03/16 09:13:39;;;;;;;3.57;1.20;;;8.10;99.90;;;;;;5022306;28;20246;-84
2022/03/16 09:16:06;;;;;;;0.83;0.83;;;7.80;99.90;;;;;;5023856;28;20208;-84
2022/03/16 09:18:32;;;;;;;1.43;1.00;;;8.10;99.90;;;;;;5024462;28;20192;-84
2022/03/16 09:21:01;;;;;;;1.73;1.30;;;8.40;99.90;;;;;;5021629;28;20190;-84
2022/03/16 09:23:31;;;;;;;1.33;1.03;;;8.90;99.90;;;;;;5013594;28;20351;-84
2022/03/16 09:26:00;;;;;;;1.33;1.27;;;9.30;99.90;;;;;;5017022;28;20221;-83
2022/03/16 09:28:27;;;;;;;1.77;1.13;;;9.50;99.90;;;;;;5018787;28;20185;-84
2022/03/16 09:30:53;;;;;;;1.30;1.20;;;9.10;99.90;;;;;;5022308;28;20205;-84
2022/03/16 09:33:21;;;;;;;0.87;0.87;;;9.60;99.90;;;;;;5024408;28;20312;-84
2022/03/16 09:35:48;;;;;;;0.77;0.70;;;10.00;99.90;;;;;;5015032;28;20379;-84
2022/03/16 09:38:15;;;;;;;1.57;0.97;;;10.30;99.90;;;;;;5016199;28;20185;-84
2022/03/16 09:40:42;;;;;;;0.80;0.80;;;10.60;99.90;;;;;;5022448;28;20187;-85
2022/03/16 09:43:08;;;;;;;1.00;0.93;;;9.50;99.90;;;;;;5020525;28;20242;-82
2022/03/16 09:45:45;;;;;;;3.17;1.33;;;10.10;99.90;;;;;;5022397;28;20191;-82
2022/03/16 09:48:11;;;;;;;2.17;1.97;;;10.40;99.90;;;;;;5020078;28;20190;-82
2022/03/16 09:50:39;;;;;;;0.80;0.80;;;10.40;99.90;;;;;;5022171;28;20224;-82
2022/03/16 09:53:06;;;;;;;0.90;0.90;;;10.50;99.90;;;;;;5021028;28;20214;-82
2022/03/16 09:55:31;;;;;;;1.70;1.03;;;10.50;99.90;;;;;;5019593;28;20574;-82
2022/03/16 09:57:57;;;;;;;1.27;1.27;;;11.00;99.90;;;;;;5022242;28;20178;-82
2022/03/16 10:00:22;;;;;;;0.60;0.60;;;10.90;99.90;;;;;;5018541;28;20197;-82
2022/03/16 10:02:48;;;;;;;2.10;1.40;;;11.30;99.90;;;;;;5016699;28;20206;-82
2022/03/16 10:05:15;;;;;;;3.00;1.30;;;10.90;99.90;;;;;;5017151;28;20275;-82
2022/03/16 10:07:45;;;;;;;0.77;0.57;;;11.20;99.90;;;;;;5020426;28;20260;-82
2022/03/16 10:13:13;;;;;;;0.40;0.40;;;11.30;99.90;;;;;;5023249;28;20220;-82
2022/03/16 10:15:39;;;;;;;1.10;1.07;;;11.60;99.90;;;;;;5018104;28;20189;-82
2022/03/16 10:18:06;;;;;;;1.57;0.80;;;11.60;99.90;;;;;;5024967;28;20214;-82
2022/03/16 10:20:37;;;;;;;0.83;0.83;;;11.10;99.90;;;;;;5020193;28;20269;-82
2022/03/16 10:23:14;;;;;;;1.80;1.43;;;11.30;99.90;;;;;;5018591;28;20206;-82
2022/03/16 10:25:51;;;;;;;1.90;1.43;;;10.90;99.90;;;;;;5020564;28;20174;-82
2022/03/16 10:28:21;;;;;;;1.60;1.50;;;10.10;99.90;;;;;;5026908;28;20198;-82
2022/03/16 10:30:56;;;;;;;0.80;0.63;;;10.30;99.90;;;;;;5019878;28;20210;-82
2022/03/16 10:33:24;;;;;;;2.43;0.50;;;10.50;99.90;;;;;;5024783;28;20312;-81
2022/03/16 10:36:01;;;;;;;1.43;1.33;;;11.00;99.90;;;;;;5025908;28;20230;-82
2022/03/16 10:38:27;;;;;;;1.73;1.07;;;10.60;99.90;;;;;;5024150;28;20181;-81
2022/03/16 10:41:10;;;;;;;1.67;1.50;;;10.60;99.90;;;;;;5023918;28;20182;-82
2022/03/16 10:46:35;;;;;;;1.30;0.73;;;11.40;99.90;;;;;;5026576;28;20209;-82
2022/03/16 10:49:06;;;;;;;1.13;1.13;;;11.90;99.90;;;;;;5024490;28;20270;-82
2022/03/16 10:51:33;;;;;;;0.90;0.90;;;11.20;99.90;;;;;;5024179;28;20650;-82
2022/03/16 10:54:00;;;;;;;1.17;1.17;;;11.70;99.90;;;;;;5020110;28;20201;-82
2022/03/16 10:56:27;;;;;;;0.57;0.57;;;11.70;99.90;;;;;;5021788;28;20183;-82
2022/03/16 10:58:54;;;;;;;0.77;0.70;;;11.70;99.90;;;;;;5023749;28;20178;-82
2022/03/16 11:01:21;;;;;;;1.47;1.40;;;11.30;99.90;;;;;;5028089;28;20190;-82
2022/03/16 11:03:49;;;;;;;2.60;0.97;;;10.90;99.90;;;;;;5023655;28;20225;-82
2022/03/16 11:06:18;;;;;;;2.53;1.17;;;10.90;99.90;;;;;;5024618;28;20803;-82
2022/03/16 11:08:44;;;;;;;3.57;1.30;;;10.90;99.90;;;;;;5025019;28;20228;-82
2022/03/16 11:13:56;;;;;;;2.70;1.03;;;11.30;99.90;;;;;;5027334;28;20201;-82
2022/03/16 11:16:24;;;;;;;1.77;0.73;;;11.20;99.90;;;;;;5026311;28;21043;-82
2022/03/16 11:18:51;;;;;;;1.23;0.77;;;11.90;99.90;;;;;;5019427;28;21030;-82
2022/03/16 11:21:24;;;;;;;1.97;1.77;;;11.50;99.90;;;;;;5027780;28;20609;-82
2022/03/16 11:26:51;;;;;;;3.17;2.30;;;11.40;99.90;;;;;;5027415;28;20256;-82
2022/03/16 11:29:28;;;;;;;2.03;1.53;;;12.00;99.90;;;;;;5028819;28;20333;-82
2022/03/16 11:32:09;;;;;;;1.43;1.33;;;12.40;99.90;;;;;;5028850;28;20304;-82
2022/03/16 11:34:36;;;;;;;2.67;1.37;;;11.90;99.90;;;;;;5025768;28;20236;-82
2022/03/16 11:37:12;;;;;;;2.50;1.87;;;11.80;99.90;;;;;;5028626;28;20223;-82
2022/03/16 11:39:47;;;;;;;0.83;0.83;;;12.20;99.90;;;;;;5027028;28;20186;-82
2022/03/16 11:42:18;;;;;;;2.13;1.13;;;12.50;99.90;;;;;;5026522;28;20300;-81
2022/03/16 11:44:45;;;;;;;1.67;1.57;;;12.60;99.90;;;;;;5027524;28;20198;-82
2022/03/16 11:47:10;;;;;;;2.80;2.03;;;12.40;99.90;;;;;;5027745;28;20244;-82
2022/03/16 11:49:38;;;;;;;3.30;1.57;;;12.60;99.90;;;;;;5027829;28;20187;-82
2022/03/16 11:52:08;;;;;;;2.07;1.80;;;12.90;99.90;;;;;;5027272;28;20202;-83
2022/03/16 11:54:41;;;;;;;1.67;1.53;;;12.40;99.90;;;;;;5045625;28;20191;-83
2022/03/16 11:57:08;;;;;;;1.33;0.90;;;12.80;99.90;;;;;;5024970;28;20270;-82
2022/03/16 11:59:40;;;;;;;1.43;1.03;;;12.30;99.90;;;;;;5025724;28;20199;-82
2022/03/16 12:02:09;;;;;;;2.97;0.87;;;12.20;99.90;;;;;;5026705;28;20846;-82
2022/03/16 12:04:38;;;;;;;0.80;0.80;;;12.10;99.90;;;;;;5028172;28;20189;-82
2022/03/16 12:07:34;;;;;;;2.17;1.10;;;12.20;99.90;;;;;;5024072;28;20555;-82
2022/03/16 12:10:10;;;;;;;1.13;1.13;;;12.00;99.90;;;;;;5024332;28;20279;-82
2022/03/16 12:12:54;;;;;;;7.23;1.73;;;12.30;99.90;;;;;;5021768;28;20232;-87
2022/03/16 12:15:37;;;;;;;1.97;1.17;;;12.40;99.90;;;;;;5019981;28;20270;-82
2022/03/16 12:18:12;;;;;;;1.90;1.13;;;12.30;99.90;;;;;;5023009;28;20183;-82
2022/03/16 12:20:42;;;;;;;1.63;1.17;;;12.50;99.90;;;;;;5024047;28;20292;-81
2022/03/16 12:23:18;;;;;;;1.60;1.50;;;12.40;99.90;;;;;;5023143;28;20217;-82
2022/03/16 12:25:47;;;;;;;1.13;1.00;;;12.50;99.90;;;;;;5023355;28;20177;-82
2022/03/16 12:31:06;;;;;;;2.00;0.83;;;13.00;99.90;;;;;;5027132;28;20215;-82
2022/03/16 12:33:37;;;;;;;1.10;1.10;;;13.40;99.90;;;;;;5027535;28;20243;-82
2022/03/16 12:36:04;;;;;;;0.40;0.40;;;12.80;99.90;;;;;;5026596;28;20268;-82
2022/03/16 12:38:32;;;;;;;2.00;0.93;;;13.00;99.90;;;;;;5024760;28;20660;-82
2022/03/16 12:43:48;;;;;;;0.83;0.83;;;13.20;99.90;;;;;;5026278;28;20190;-82
2022/03/16 12:46:32;;;;;;;4.57;1.57;;;13.30;99.90;;;;;;5025156;28;20205;-82
2022/03/16 12:49:11;;;;;;;1.97;1.87;;;13.20;99.90;;;;;;5026443;28;20200;-82
2022/03/16 12:51:50;;;;;;;7.63;2.03;;;12.80;99.90;;;;;;5025197;28;20224;-82
2022/03/16 12:54:28;;;;;;;3.80;1.83;;;12.50;99.90;;;;;;5025664;28;20178;-82
2022/03/16 12:57:01;;;;;;;1.93;0.77;;;12.70;99.90;;;;;;5028497;28;20223;-82
2022/03/16 12:59:29;;;;;;;10.83;2.03;;;12.40;99.90;;;;;;5024018;28;20815;-80
2022/03/16 13:01:59;;;;;;;1.90;1.10;;;12.20;99.90;;;;;;5026240;28;20205;-82
2022/03/16 13:04:26;;;;;;;1.43;1.13;;;12.30;99.90;;;;;;5025230;28;20174;-82
2022/03/16 13:06:53;;;;;;;1.13;1.03;;;12.70;99.90;;;;;;5024663;28;20284;-82
2022/03/16 13:09:19;;;;;;;2.10;1.83;;;12.50;99.90;;;;;;5026353;28;20191;-82
2022/03/16 13:11:46;;;;;;;0.80;0.80;;;12.50;99.90;;;;;;5026908;28;20222;-82
2022/03/16 13:14:19;;;;;;;3.50;1.40;;;12.50;99.90;;;;;;5022550;28;20186;-82